createdAt,value
2017-12-20T00:01:34.757Z,24.23
2017-12-20T00:04:02.198Z,18.73
2017-12-20T00:06:29.892Z,19.10
2017-12-20T00:08:57.402Z,20.17
2017-12-20T00:11:25.325Z,18.27
2017-12-20T00:13:52.793Z,20.87
2017-12-20T00:16:20.269Z,18.90
2017-12-20T00:18:47.720Z,16.10
2017-12-20T00:21:15.180Z,19.35
2017-12-20T00:23:43.416Z,17.57
2017-12-20T00:26:10.860Z,18.60
2017-12-20T00:28:38.849Z,18.05
2017-12-20T00:31:06.296Z,17.45
2017-12-20T00:33:33.847Z,17.00
2017-12-20T00:36:01.596Z,18.97
2017-12-20T00:38:29.130Z,19.43
2017-12-20T00:40:56.670Z,14.43
2017-12-20T00:43:24.128Z,18.93
2017-12-20T00:45:53.262Z,18.30
2017-12-20T00:48:20.749Z,16.92
2017-12-20T00:50:48.234Z,14.43
2017-12-20T00:53:15.681Z,17.70
2017-12-20T00:55:43.933Z,16.62
2017-12-20T00:58:11.643Z,17.70
2017-12-20T01:00:39.093Z,18.15
2017-12-20T01:03:06.633Z,16.43
2017-12-20T01:05:34.106Z,18.15
2017-12-20T01:08:01.624Z,19.80
2017-12-20T01:10:29.100Z,18.43
2017-12-20T01:12:56.578Z,17.30
2017-12-20T01:15:25.755Z,13.50
2017-12-20T01:17:53.220Z,15.93
2017-12-20T01:20:20.864Z,18.95
2017-12-20T01:22:48.312Z,14.97
2017-12-20T01:25:15.757Z,14.20
2017-12-20T01:27:43.507Z,14.68
2017-12-20T01:30:10.966Z,15.03
2017-12-20T01:32:39.056Z,16.33
2017-12-20T01:35:06.539Z,15.10
2017-12-20T01:37:34.116Z,17.00
2017-12-20T01:40:01.561Z,15.57
2017-12-20T01:42:29.040Z,14.27
2017-12-20T01:44:56.461Z,16.10
2017-12-20T01:47:23.925Z,12.23
2017-12-20T01:49:51.352Z,14.37
2017-12-20T01:52:18.821Z,15.10
2017-12-20T01:54:46.276Z,10.48
2017-12-20T01:57:13.726Z,13.82
2017-12-20T01:59:45.223Z,16.15
2017-12-20T02:02:12.697Z,13.80
2017-12-20T02:04:40.137Z,15.57
2017-12-20T02:07:07.634Z,13.37
2017-12-20T02:09:35.061Z,11.30
2017-12-20T02:12:06.162Z,13.43
2017-12-20T02:14:33.652Z,17.13
2017-12-20T02:17:02.084Z,11.17
2017-12-20T02:19:29.564Z,12.70
2017-12-20T02:21:57.000Z,10.80
2017-12-20T02:24:24.481Z,13.90
2017-12-20T02:26:51.937Z,15.60
2017-12-20T02:29:19.411Z,12.23
2017-12-20T02:31:46.871Z,12.77
2017-12-20T02:34:14.346Z,13.80
2017-12-20T02:36:41.835Z,13.80
2017-12-20T02:39:09.964Z,14.65
2017-12-20T02:41:37.430Z,13.93
2017-12-20T02:44:05.028Z,16.17
2017-12-20T02:46:32.613Z,11.20
2017-12-20T02:49:00.062Z,16.05
2017-12-20T02:51:27.537Z,14.75
2017-12-20T02:53:54.991Z,16.87
2017-12-20T02:56:22.796Z,15.30
2017-12-20T02:58:50.284Z,20.77
2017-12-20T03:01:18.648Z,14.13
2017-12-20T03:03:46.138Z,12.77
2017-12-20T03:06:13.655Z,13.73
2017-12-20T03:08:41.195Z,13.00
2017-12-20T03:11:09.445Z,15.70
2017-12-20T03:13:41.196Z,15.25
2017-12-20T03:16:10.189Z,12.55
2017-12-20T03:18:38.376Z,12.18
2017-12-20T03:21:06.038Z,12.97
2017-12-20T03:23:33.523Z,14.63
2017-12-20T03:26:01.000Z,13.50
2017-12-20T03:28:28.440Z,12.30
2017-12-20T03:30:55.951Z,17.13
2017-12-20T03:33:23.404Z,12.70
2017-12-20T03:35:53.221Z,13.43
2017-12-20T03:38:20.700Z,12.52
2017-12-20T03:40:48.204Z,13.93
2017-12-20T03:43:17.332Z,13.48
2017-12-20T03:45:44.857Z,13.95
2017-12-20T03:48:12.360Z,17.30
2017-12-20T03:50:39.812Z,14.37
2017-12-20T03:53:07.293Z,16.30
2017-12-20T03:55:35.484Z,14.13
2017-12-20T03:58:03.086Z,12.73
2017-12-20T04:00:30.529Z,10.57
2017-12-20T04:02:57.976Z,15.17
2017-12-20T04:05:25.456Z,16.90
2017-12-20T04:07:52.940Z,17.13
2017-12-20T04:10:20.381Z,12.93
2017-12-20T04:12:47.825Z,12.80
2017-12-20T04:15:18.793Z,10.67
2017-12-20T04:17:46.267Z,13.33
2017-12-20T04:20:13.917Z,10.98
2017-12-20T04:22:41.387Z,12.50
2017-12-20T04:25:09.050Z,8.73
2017-12-20T04:27:36.493Z,10.07
2017-12-20T04:30:03.959Z,11.73
2017-12-20T04:32:31.483Z,12.20
2017-12-20T04:34:58.948Z,11.30
2017-12-20T04:37:26.432Z,13.50
2017-12-20T04:39:54.200Z,10.20
2017-12-20T04:42:23.354Z,9.80
2017-12-20T04:44:50.819Z,27.00
2017-12-20T04:47:18.312Z,8.53
2017-12-20T04:49:45.793Z,9.90
2017-12-20T04:52:13.256Z,8.40
2017-12-20T04:54:41.616Z,11.70
2017-12-20T04:57:09.104Z,6.30
2017-12-20T04:59:40.568Z,7.67
2017-12-20T05:02:08.043Z,8.77
2017-12-20T05:04:35.488Z,8.17
2017-12-20T05:07:02.928Z,9.27
2017-12-20T05:09:31.296Z,11.33
2017-12-20T05:11:58.732Z,5.60
2017-12-20T05:14:29.318Z,12.68
2017-12-20T05:16:56.999Z,8.83
2017-12-20T05:19:26.323Z,10.40
2017-12-20T05:21:53.805Z,5.80
2017-12-20T05:24:21.268Z,6.97
2017-12-20T05:26:48.789Z,9.27
2017-12-20T05:29:16.240Z,6.03
2017-12-20T05:31:43.749Z,9.63
2017-12-20T05:34:11.240Z,9.73
2017-12-20T05:36:40.496Z,9.05
2017-12-20T05:39:07.947Z,5.77
2017-12-20T05:41:35.404Z,6.13
2017-12-20T05:44:02.969Z,5.03
2017-12-20T05:46:30.860Z,9.20
2017-12-20T05:48:58.811Z,5.65
2017-12-20T05:51:26.280Z,3.90
2017-12-20T05:53:53.736Z,5.97
2017-12-20T05:56:21.200Z,6.90
2017-12-20T05:58:49.425Z,5.43
2017-12-20T06:01:17.036Z,5.28
2017-12-20T06:03:44.489Z,8.87
2017-12-20T06:06:13.697Z,6.47
2017-12-20T06:08:41.140Z,6.65
2017-12-20T06:11:08.613Z,7.70
2017-12-20T06:13:36.108Z,9.20
2017-12-20T06:16:03.544Z,8.25
2017-12-20T06:18:31.800Z,13.24
2017-12-20T06:20:59.274Z,6.47
2017-12-20T06:23:26.748Z,7.17
2017-12-20T06:25:54.347Z,5.55
2017-12-20T06:28:21.876Z,8.80
2017-12-20T06:30:49.319Z,5.18
2017-12-20T06:33:16.789Z,9.17
2017-12-20T06:35:45.216Z,4.68
2017-12-20T06:38:12.682Z,12.88
2017-12-20T06:40:40.161Z,6.83
2017-12-20T06:43:07.620Z,6.80
2017-12-20T06:45:35.115Z,5.50
2017-12-20T06:48:02.561Z,5.97
2017-12-20T06:50:30.039Z,7.97
2017-12-20T06:52:57.487Z,4.47
2017-12-20T06:55:24.920Z,11.77
2017-12-20T06:57:52.444Z,6.65
2017-12-20T07:00:19.897Z,4.33
2017-12-20T07:02:48.289Z,7.57
2017-12-20T07:05:15.772Z,6.67
2017-12-20T07:07:43.970Z,5.27
2017-12-20T07:10:11.439Z,4.53
2017-12-20T07:12:38.864Z,5.97
2017-12-20T07:15:07.916Z,5.18
2017-12-20T07:17:39.200Z,5.00
2017-12-20T07:20:08.325Z,6.62
2017-12-20T07:22:36.049Z,3.97
2017-12-20T07:25:03.492Z,5.23
2017-12-20T07:27:30.953Z,6.40
2017-12-20T07:29:58.498Z,3.50
2017-12-20T07:32:30.344Z,6.00
2017-12-20T07:34:57.828Z,13.77
2017-12-20T07:37:25.298Z,3.90
2017-12-20T07:39:53.532Z,8.38
2017-12-20T07:42:21.029Z,4.12
2017-12-20T07:44:48.785Z,4.60
2017-12-20T07:47:17.417Z,4.70
2017-12-20T07:49:44.882Z,4.30
2017-12-20T07:52:12.352Z,4.70
2017-12-20T07:54:39.845Z,6.50
2017-12-20T07:57:07.278Z,4.67
2017-12-20T07:59:35.677Z,8.88
2017-12-20T08:02:03.437Z,5.68
2017-12-20T08:04:32.381Z,4.73
2017-12-20T08:07:01.988Z,3.80
2017-12-20T08:09:29.453Z,4.13
2017-12-20T08:11:56.908Z,4.80
2017-12-20T08:14:25.276Z,7.50
2017-12-20T08:16:52.725Z,3.80
2017-12-20T08:19:28.209Z,4.03
2017-12-20T08:21:56.475Z,5.28
2017-12-20T08:24:24.068Z,6.30
2017-12-20T08:26:51.527Z,4.87
2017-12-20T08:29:21.832Z,4.12
2017-12-20T08:31:49.512Z,4.60
2017-12-20T08:34:19.740Z,5.97
2017-12-20T08:36:47.173Z,5.73
2017-12-20T08:39:14.596Z,6.13
2017-12-20T08:41:42.139Z,9.43
2017-12-20T08:44:10.069Z,5.47
2017-12-20T08:46:37.548Z,4.43
2017-12-20T08:49:05.014Z,3.87
2017-12-20T08:51:32.527Z,4.57
2017-12-20T08:54:00.001Z,4.50
2017-12-20T08:56:27.514Z,5.10
2017-12-20T08:58:54.974Z,4.77
2017-12-20T09:01:22.444Z,5.80
2017-12-20T09:03:57.581Z,4.28
2017-12-20T09:06:25.052Z,5.93
2017-12-20T09:08:52.512Z,5.55
2017-12-20T09:11:19.996Z,6.43
2017-12-20T09:13:47.451Z,6.00
2017-12-20T09:16:14.973Z,5.82
2017-12-20T09:18:42.417Z,4.70
2017-12-20T09:21:09.878Z,5.73
2017-12-20T09:23:38.273Z,6.93
2017-12-20T09:26:05.725Z,4.07
2017-12-20T09:28:33.396Z,4.50
2017-12-20T09:31:02.667Z,6.70
2017-12-20T09:33:30.141Z,5.20
2017-12-20T09:35:57.609Z,7.60
2017-12-20T09:38:25.046Z,5.97
2017-12-20T09:40:52.765Z,5.40
2017-12-20T09:43:20.282Z,6.97
2017-12-20T09:45:47.751Z,6.50
2017-12-20T09:48:15.235Z,7.80
2017-12-20T09:50:42.774Z,8.50
2017-12-20T09:53:10.978Z,6.93
2017-12-20T09:55:38.505Z,9.97
2017-12-20T09:58:05.940Z,7.97
2017-12-20T10:00:33.449Z,8.10
2017-12-20T10:03:01.810Z,8.05
2017-12-20T10:05:30.669Z,5.30
2017-12-20T10:07:58.117Z,8.57
2017-12-20T10:10:25.597Z,6.23
2017-12-20T10:12:53.064Z,11.50
2017-12-20T10:15:21.004Z,19.80
2017-12-20T10:17:50.198Z,9.15
2017-12-20T10:20:17.653Z,8.57
2017-12-20T10:22:45.496Z,9.23
2017-12-20T10:25:13.922Z,11.93
2017-12-20T10:27:41.494Z,12.43
2017-12-20T10:30:08.925Z,10.30
2017-12-20T10:32:36.742Z,9.43
2017-12-20T10:35:07.636Z,11.40
2017-12-20T10:37:35.070Z,10.90
2017-12-20T10:40:02.668Z,9.98
2017-12-20T10:42:30.212Z,13.50
2017-12-20T10:44:58.233Z,11.90
2017-12-20T10:47:25.711Z,16.10
2017-12-20T10:49:56.797Z,10.00
2017-12-20T10:52:24.271Z,11.77
2017-12-20T10:54:51.796Z,12.77
2017-12-20T10:57:19.276Z,12.83
2017-12-20T10:59:47.669Z,11.12
2017-12-20T11:02:15.172Z,13.20
2017-12-20T11:04:42.651Z,12.43
2017-12-20T11:07:10.106Z,10.90
2017-12-20T11:09:37.773Z,13.95
2017-12-20T11:12:05.217Z,14.57
2017-12-20T11:14:32.671Z,11.50
2017-12-20T11:17:00.132Z,15.17
2017-12-20T11:19:27.594Z,17.00
2017-12-20T11:21:55.195Z,12.82
2017-12-20T11:24:22.689Z,14.57
2017-12-20T11:26:50.188Z,9.60
2017-12-20T11:29:17.616Z,11.73
2017-12-20T11:31:45.085Z,12.95
2017-12-20T11:34:12.549Z,13.85
2017-12-20T11:36:40.041Z,12.43
2017-12-20T11:39:07.521Z,15.13
2017-12-20T11:41:35.004Z,14.43
2017-12-20T11:44:02.481Z,14.38
2017-12-20T11:46:30.098Z,11.38
2017-12-20T11:48:57.865Z,13.77
2017-12-20T11:51:28.865Z,12.82
2017-12-20T11:53:56.365Z,10.10
2017-12-20T11:56:24.065Z,13.93
2017-12-20T11:58:51.519Z,16.90
2017-12-20T12:01:18.976Z,16.40
2017-12-20T12:03:46.502Z,18.20
2017-12-20T12:06:18.233Z,23.52
2017-12-20T12:08:45.678Z,15.43
2017-12-20T12:11:13.190Z,19.20
2017-12-20T12:13:40.639Z,18.73
2017-12-20T12:16:08.288Z,19.17
2017-12-20T12:18:35.786Z,20.65
2017-12-20T12:21:03.254Z,16.92
2017-12-20T12:23:35.297Z,21.15
2017-12-20T12:26:02.740Z,17.83
2017-12-20T12:28:30.265Z,15.45
2017-12-20T12:30:57.794Z,15.40
2017-12-20T12:33:25.308Z,17.25
2017-12-20T12:35:52.809Z,18.58
2017-12-20T12:38:20.454Z,21.45
2017-12-20T12:40:47.924Z,16.00
2017-12-20T12:43:15.398Z,16.08
2017-12-20T12:45:42.860Z,17.12
2017-12-20T12:48:11.704Z,17.37
2017-12-20T12:50:39.149Z,12.05
2017-12-20T12:53:10.954Z,21.40
2017-12-20T12:55:38.400Z,17.67
2017-12-20T12:58:05.881Z,18.02
2017-12-20T13:00:33.360Z,18.98
2017-12-20T13:03:00.868Z,24.92
2017-12-20T13:05:28.362Z,15.70
2017-12-20T13:07:59.401Z,21.48
2017-12-20T13:10:26.836Z,20.17
2017-12-20T13:12:54.669Z,21.48
2017-12-20T13:15:22.164Z,18.73
2017-12-20T13:17:49.603Z,20.35
2017-12-20T13:20:17.228Z,22.37
2017-12-20T13:22:57.006Z,16.33
2017-12-20T13:25:24.632Z,19.73
2017-12-20T13:30:25.872Z,17.62
2017-12-20T13:32:53.333Z,21.85
2017-12-20T13:35:20.769Z,16.60
2017-12-20T13:37:48.212Z,22.30
2017-12-20T13:40:15.721Z,21.15
2017-12-20T13:42:43.155Z,22.83
2017-12-20T13:45:10.743Z,18.37
2017-12-20T13:47:38.208Z,18.52
2017-12-20T13:50:05.705Z,17.70
2017-12-20T13:52:33.160Z,22.13
2017-12-20T13:55:00.673Z,19.25
2017-12-20T13:57:28.146Z,21.33
2017-12-20T13:59:55.712Z,22.77
2017-12-20T14:02:23.396Z,19.73
2017-12-20T14:04:50.872Z,26.10
2017-12-20T14:07:23.432Z,19.10
2017-12-20T14:09:58.972Z,25.55
2017-12-20T14:12:26.437Z,23.40
2017-12-20T14:14:53.922Z,24.00
2017-12-20T14:17:21.391Z,19.70
2017-12-20T14:19:49.621Z,23.77
2017-12-20T14:22:17.101Z,22.33
2017-12-20T14:24:47.408Z,22.65
2017-12-20T14:27:14.899Z,21.70
2017-12-20T14:29:42.365Z,26.00
2017-12-20T14:32:09.820Z,25.75
2017-12-20T14:34:37.276Z,25.60
2017-12-20T14:37:04.788Z,29.55
2017-12-20T14:39:35.760Z,23.23
2017-12-20T14:42:03.280Z,25.62
2017-12-20T14:44:30.805Z,23.48
2017-12-20T14:46:59.271Z,23.65
2017-12-20T14:49:26.740Z,28.62
2017-12-20T14:51:54.193Z,22.48
2017-12-20T14:54:25.564Z,24.83
2017-12-20T14:56:53.045Z,28.17
2017-12-20T14:59:20.499Z,28.98
2017-12-20T15:01:48.016Z,28.00
2017-12-20T15:04:15.473Z,29.20
2017-12-20T15:06:42.943Z,29.80
2017-12-20T15:09:11.059Z,25.25
2017-12-20T15:11:38.568Z,29.08
2017-12-20T15:14:09.746Z,29.45
2017-12-20T15:16:37.217Z,31.67
2017-12-20T15:19:04.653Z,37.95
2017-12-20T15:21:32.132Z,30.95
2017-12-20T15:23:59.736Z,23.38
2017-12-20T15:26:27.200Z,32.42
2017-12-20T15:28:54.712Z,34.55
2017-12-20T15:31:22.184Z,28.25
2017-12-20T15:33:49.612Z,25.02
2017-12-20T15:36:17.061Z,28.62
2017-12-20T15:38:44.564Z,20.52
2017-12-20T15:41:12.549Z,29.15
2017-12-20T15:43:39.985Z,21.58
2017-12-20T15:46:07.484Z,21.45
2017-12-20T15:48:34.932Z,22.58
2017-12-20T15:51:03.328Z,21.15
2017-12-20T15:53:30.791Z,20.88
2017-12-20T15:56:01.676Z,24.70
2017-12-20T15:58:29.196Z,21.30
2017-12-20T16:00:56.649Z,26.80
2017-12-20T16:03:24.117Z,24.37
2017-12-20T16:05:53.092Z,19.12
2017-12-20T16:08:20.528Z,23.33
2017-12-20T16:10:59.750Z,17.02
2017-12-20T16:13:27.220Z,21.12
2017-12-20T16:15:54.689Z,17.23
2017-12-20T16:18:22.263Z,18.98
2017-12-20T16:20:50.163Z,17.02
2017-12-20T16:23:17.683Z,18.58
2017-12-20T16:25:45.142Z,22.27
2017-12-20T16:28:12.617Z,20.15
2017-12-20T16:30:43.951Z,21.52
2017-12-20T16:33:11.388Z,22.02
2017-12-20T16:35:38.841Z,23.62
2017-12-20T16:38:07.195Z,14.82
2017-12-20T16:40:34.665Z,16.75
2017-12-20T16:43:02.356Z,19.92
2017-12-20T16:45:29.849Z,17.25
2017-12-20T16:47:57.362Z,17.27
2017-12-20T16:50:24.814Z,16.25
2017-12-20T16:52:52.293Z,17.35
2017-12-20T16:55:20.437Z,16.20
2017-12-20T16:57:51.993Z,17.85
2017-12-20T17:00:19.445Z,17.65
2017-12-20T17:02:46.927Z,17.92
2017-12-20T17:05:14.368Z,14.52
2017-12-20T17:07:41.852Z,17.27
2017-12-20T17:10:09.345Z,19.98
2017-12-20T17:12:36.794Z,19.48
2017-12-20T17:15:04.595Z,18.73
2017-12-20T17:17:32.140Z,16.90
2017-12-20T17:19:59.678Z,20.40
2017-12-20T17:22:27.193Z,21.15
2017-12-20T17:24:54.715Z,25.05
2017-12-20T17:27:22.171Z,21.37
2017-12-20T17:29:50.208Z,20.30
2017-12-20T17:32:18.441Z,18.12
2017-12-20T17:34:45.899Z,18.20
2017-12-20T17:37:13.401Z,18.55
2017-12-20T17:39:40.957Z,20.37
2017-12-20T17:42:08.440Z,19.85
2017-12-20T17:44:36.694Z,16.42
2017-12-20T17:47:04.153Z,20.83
2017-12-20T17:49:32.467Z,16.92
2017-12-20T17:51:59.938Z,21.90
2017-12-20T17:54:27.384Z,18.70
2017-12-20T17:56:59.426Z,22.25
2017-12-20T17:59:30.862Z,18.05
2017-12-20T18:01:58.374Z,21.65
2017-12-20T18:04:25.880Z,17.15
2017-12-20T18:06:54.191Z,18.30
2017-12-20T18:09:22.067Z,19.30
2017-12-20T18:11:49.538Z,23.25
2017-12-20T18:14:17.005Z,22.90
2017-12-20T18:16:45.501Z,19.30
2017-12-20T18:19:27.036Z,21.95
2017-12-20T18:21:55.329Z,17.40
2017-12-20T18:24:22.895Z,20.80
2017-12-20T18:26:50.420Z,22.00
2017-12-20T18:29:17.905Z,20.05
2017-12-20T18:31:45.409Z,14.05
2017-12-20T18:34:12.852Z,18.30
2017-12-20T18:36:41.370Z,19.05
2017-12-20T18:39:08.915Z,18.42
2017-12-20T18:41:36.402Z,15.10
2017-12-20T18:44:03.863Z,17.73
2017-12-20T18:46:31.383Z,18.25
2017-12-20T18:48:59.237Z,16.65
2017-12-20T18:51:26.922Z,14.73
2017-12-20T18:53:55.173Z,16.62
2017-12-20T18:56:23.564Z,17.85
2017-12-20T18:58:51.808Z,17.42
2017-12-20T19:01:19.308Z,15.85
2017-12-20T19:03:46.912Z,16.05
2017-12-20T19:06:14.516Z,18.55
2017-12-20T19:08:42.148Z,17.35
2017-12-20T19:11:09.644Z,17.20
2017-12-20T19:13:37.133Z,17.83
2017-12-20T19:16:04.643Z,16.77
2017-12-20T19:18:32.128Z,18.52
2017-12-20T19:20:59.651Z,17.58
2017-12-20T19:23:27.148Z,23.38
2017-12-20T19:25:54.664Z,18.45
2017-12-20T19:28:22.964Z,17.60
2017-12-20T19:30:50.414Z,14.70
2017-12-20T19:33:17.889Z,17.75
2017-12-20T19:35:45.482Z,16.52
2017-12-20T19:38:12.945Z,16.60
2017-12-20T19:40:41.192Z,19.10
2017-12-20T19:43:08.670Z,18.83
2017-12-20T19:45:36.231Z,19.83
2017-12-20T19:48:03.803Z,17.33
2017-12-20T19:50:31.554Z,16.50
2017-12-20T19:52:59.152Z,19.42
2017-12-20T19:55:26.990Z,18.58
2017-12-20T19:57:54.541Z,19.58
2017-12-20T20:00:22.001Z,33.85
2017-12-20T20:02:49.490Z,19.25
2017-12-20T20:05:17.958Z,16.90
2017-12-20T20:07:45.493Z,18.92
2017-12-20T20:10:12.982Z,19.17
2017-12-20T20:12:40.497Z,19.75
2017-12-20T20:15:11.296Z,21.45
2017-12-20T20:17:38.844Z,20.23
2017-12-20T20:20:07.057Z,18.87
2017-12-20T20:22:36.657Z,20.12
2017-12-20T20:25:04.941Z,19.15
2017-12-20T20:27:33.116Z,21.20
2017-12-20T20:30:01.400Z,20.65
2017-12-20T20:32:28.909Z,22.67
2017-12-20T20:34:57.205Z,23.45
2017-12-20T20:37:24.722Z,20.62
2017-12-20T20:39:52.349Z,24.20
2017-12-20T20:42:19.980Z,19.77
2017-12-20T20:44:47.949Z,21.05
2017-12-20T20:47:15.476Z,22.37
2017-12-20T20:49:42.992Z,22.92
2017-12-20T20:52:11.248Z,23.27
2017-12-20T20:54:38.767Z,22.35
2017-12-20T20:57:06.233Z,24.30
2017-12-20T20:59:33.865Z,25.02
2017-12-20T21:02:01.356Z,19.90
2017-12-20T21:04:28.865Z,23.08
2017-12-20T21:06:56.427Z,23.17
2017-12-20T21:09:23.980Z,27.50
2017-12-20T21:11:51.484Z,24.83
2017-12-20T21:14:18.931Z,23.50
2017-12-20T21:16:50.178Z,25.58
2017-12-20T21:19:17.671Z,28.95
2017-12-20T21:21:45.175Z,23.90
2017-12-20T21:24:12.676Z,28.92
2017-12-20T21:26:40.178Z,27.60
2017-12-20T21:29:07.769Z,23.75
2017-12-20T21:31:35.253Z,26.50
2017-12-20T21:34:02.740Z,23.02
2017-12-20T21:36:31.446Z,30.10
2017-12-20T21:38:58.965Z,25.20
2017-12-20T21:41:26.505Z,27.70
2017-12-20T21:43:53.999Z,25.55
2017-12-20T21:46:21.522Z,24.77
2017-12-20T21:48:49.017Z,31.50
2017-12-20T21:51:17.292Z,33.40
2017-12-20T21:53:44.795Z,27.83
2017-12-20T21:56:12.466Z,29.15
2017-12-20T21:58:40.201Z,30.35
2017-12-20T22:01:12.212Z,29.25
2017-12-20T22:03:39.803Z,30.90
2017-12-20T22:06:07.495Z,32.28
2017-12-20T22:08:34.952Z,32.72
2017-12-20T22:11:02.472Z,28.15
2017-12-20T22:13:30.012Z,32.72
2017-12-20T22:15:57.511Z,29.60
2017-12-20T22:18:24.984Z,26.23
2017-12-20T22:20:52.549Z,27.90
2017-12-20T22:23:20.050Z,28.73
2017-12-20T22:25:47.664Z,28.25
2017-12-20T22:28:15.182Z,27.27
2017-12-20T22:30:42.690Z,27.02
2017-12-20T22:33:10.195Z,29.70
2017-12-20T22:35:38.488Z,26.90
2017-12-20T22:38:05.952Z,29.30
2017-12-20T22:40:33.441Z,25.42
2017-12-20T22:43:00.990Z,26.00
2017-12-20T22:45:28.524Z,29.60
2017-12-20T22:47:59.854Z,25.67
2017-12-20T22:50:27.367Z,26.73
2017-12-20T22:52:54.825Z,29.87
2017-12-20T22:55:22.292Z,29.02
2017-12-20T22:57:49.852Z,26.65
2017-12-20T23:00:17.397Z,27.90
2017-12-20T23:02:44.905Z,24.55
2017-12-20T23:05:12.344Z,26.98
2017-12-20T23:07:39.820Z,28.23
2017-12-20T23:10:07.412Z,24.27
2017-12-20T23:12:34.881Z,27.85
2017-12-20T23:15:02.424Z,26.85
2017-12-20T23:17:32.884Z,26.65
2017-12-20T23:20:00.411Z,26.00
2017-12-20T23:22:27.887Z,29.10
2017-12-20T23:24:55.327Z,33.67
2017-12-20T23:27:22.878Z,29.58
2017-12-20T23:29:50.382Z,27.80
2017-12-20T23:32:17.839Z,31.02
2017-12-20T23:34:45.301Z,28.05
2017-12-20T23:37:12.842Z,29.55
2017-12-20T23:39:40.324Z,29.85
2017-12-20T23:42:07.788Z,26.80
2017-12-20T23:44:35.283Z,33.05
2017-12-20T23:47:02.775Z,30.00
2017-12-20T23:49:34.093Z,28.70
2017-12-20T23:52:01.538Z,34.63
2017-12-20T23:54:29.799Z,25.05
2017-12-20T23:56:57.302Z,29.85
2017-12-20T23:59:24.785Z,32.17
